University Park, PA (16802)

4:17 PM EDT on August 24, 2016 (GMT -0400)
Our Lady of Victory School | | Change Station

Elev 1145 ft 40.78 °N, 77.87 °W | Updated 4 seconds ago

Mostly Cloudy
Mostly Cloudy
84.4 °F
Feels Like 86 °F
N
0.0
Wind Variable Wind from NW
Gusts 0.0 mph

Today
High -- | Low -- °F
--% Chance of Precip.
Yesterday
High -- | Low -- °F
Precip. -- in
Pressure 30.20 in
Visibility 10.0 miles
Clouds Scattered Clouds 4500 ft
Mostly Cloudy 6000 ft
Heat Index 86 °F
Dew Point 64 °F
Humidity 51%
Rainfall 0.00 in
Snow Depth Not available.
6:30 AM 7:55 PM
Waning Gibbous, 54% visible
METAR KUNV 241953Z 18011KT 10SM SCT045 BKN060 27/19 A3020
Pressure 30.20 in
Visibility 10.0 miles
Clouds Scattered Clouds 4500 ft
Mostly Cloudy 6000 ft
Heat Index 86 °F
Dew Point 64 °F
Humidity 51%
Rainfall 0.00 in
Snow Depth Not available.
6:30 AM 7:55 PM
Waning Gibbous, 54% visible
METAR KUNV 241953Z 18011KT 10SM SCT045 BKN060 27/19 A3020

10-Day Weather Forecast

Almanac

Astronomy

Aug. 24, 2016 Rise Set
Actual Time
Civil Twilight
Nautical Twilight
Astronomical Twilight
Moon
Length of Visible Light
Length of Day
Tomorrow will be .
, % of the Moon is Illuminated

Today's Extremes

State Highs State Lows

Community

WunderPhotos

Upload Photos

1,934,699 photos uploaded!

WunderBlog® & News

Nearby

Air Quality

  Air Quality AQ Index Pollutant
Not available.

Snow Depth

Station Depth Elevation

Earthquake Activity

City Distance Mag. Time & Date
Minimum magnitude displayed is 2.5.

Coastal Water Temperatures

Place Temperature

Stations

Nearby Weather Stations

Station Location Temp. Windchill Dew Point Humidity Wind Precip. Elev Updated Type
                   

Watches & Warnings

There are currently no watches in effect.